sensor_id;sensor_type;location;lat;lon;timestamp;pressure;altitude;pressure_sealevel;temperature
69186;BMP280;56298;49.246;9.410;2022-09-30T00:01:33;98555.84;;;7.44
69186;BMP280;56298;49.246;9.410;2022-09-30T00:03:59;98556.19;;;7.42
69186;BMP280;56298;49.246;9.410;2022-09-30T00:06:27;98558.81;;;7.38
69186;BMP280;56298;49.246;9.410;2022-09-30T00:08:53;98559.94;;;7.37
69186;BMP280;56298;49.246;9.410;2022-09-30T00:11:24;98567.78;;;7.39
69186;BMP280;56298;49.246;9.410;2022-09-30T00:13:51;98563.41;;;7.34
69186;BMP280;56298;49.246;9.410;2022-09-30T00:16:18;98570.44;;;7.35
69186;BMP280;56298;49.246;9.410;2022-09-30T00:18:45;98564.09;;;7.31
69186;BMP280;56298;49.246;9.410;2022-09-30T00:21:12;98565.25;;;7.30
69186;BMP280;56298;49.246;9.410;2022-09-30T00:23:38;98568.25;;;7.25
69186;BMP280;56298;49.246;9.410;2022-09-30T00:26:07;98566.28;;;7.25
69186;BMP280;56298;49.246;9.410;2022-09-30T00:28:33;98571.66;;;7.22
69186;BMP280;56298;49.246;9.410;2022-09-30T00:31:00;98572.00;;;7.20
69186;BMP280;56298;49.246;9.410;2022-09-30T00:33:26;98574.97;;;7.15
69186;BMP280;56298;49.246;9.410;2022-09-30T00:35:52;98565.97;;;7.15
69186;BMP280;56298;49.246;9.410;2022-09-30T00:38:17;98568.97;;;7.09
69186;BMP280;56298;49.246;9.410;2022-09-30T00:40:42;98566.25;;;7.09
69186;BMP280;56298;49.246;9.410;2022-09-30T00:43:20;98570.69;;;7.02
69186;BMP280;56298;49.246;9.410;2022-09-30T00:46:04;98573.03;;;7.00
69186;BMP280;56298;49.246;9.410;2022-09-30T00:48:34;98571.84;;;7.01
69186;BMP280;56298;49.246;9.410;2022-09-30T00:51:01;98564.44;;;7.01
69186;BMP280;56298;49.246;9.410;2022-09-30T00:53:30;98561.72;;;7.01
69186;BMP280;56298;49.246;9.410;2022-09-30T00:58:39;98569.50;;;6.99
69186;BMP280;56298;49.246;9.410;2022-09-30T01:01:06;98567.56;;;6.87
69186;BMP280;56298;49.246;9.410;2022-09-30T01:03:34;98578.47;;;6.87
69186;BMP280;56298;49.246;9.410;2022-09-30T01:06:01;98576.56;;;6.88
69186;BMP280;56298;49.246;9.410;2022-09-30T01:08:27;98581.47;;;6.82
69186;BMP280;56298;49.246;9.410;2022-09-30T01:10:54;98573.41;;;6.86
69186;BMP280;56298;49.246;9.410;2022-09-30T01:13:21;98581.22;;;6.87
69186;BMP280;56298;49.246;9.410;2022-09-30T01:16:00;98582.78;;;6.88
69186;BMP280;56298;49.246;9.410;2022-09-30T01:18:58;98581.13;;;6.83
69186;BMP280;56298;49.246;9.410;2022-09-30T01:35:04;98597.16;;;6.60
69186;BMP280;56298;49.246;9.410;2022-09-30T01:37:49;98587.34;;;6.55
69186;BMP280;56298;49.246;9.410;2022-09-30T01:40:28;98583.22;;;6.49
69186;BMP280;56298;49.246;9.410;2022-09-30T01:45:45;98591.41;;;6.49
69186;BMP280;56298;49.246;9.410;2022-09-30T01:48:26;98592.88;;;6.47
69186;BMP280;56298;49.246;9.410;2022-09-30T01:51:04;98588.47;;;6.42
69186;BMP280;56298;49.246;9.410;2022-09-30T01:53:46;98597.09;;;6.44
69186;BMP280;56298;49.246;9.410;2022-09-30T01:56:28;98598.56;;;6.41
69186;BMP280;56298;49.246;9.410;2022-09-30T01:59:01;98597.00;;;6.40
69186;BMP280;56298;49.246;9.410;2022-09-30T02:01:31;98608.34;;;6.42
69186;BMP280;56298;49.246;9.410;2022-09-30T02:04:03;98610.59;;;6.40
69186;BMP280;56298;49.246;9.410;2022-09-30T02:06:37;98608.91;;;6.36
69186;BMP280;56298;49.246;9.410;2022-09-30T02:09:25;98609.25;;;6.22
69186;BMP280;56298;49.246;9.410;2022-09-30T02:11:53;98616.41;;;6.26
69186;BMP280;56298;49.246;9.410;2022-09-30T02:14:27;98613.09;;;6.21
69186;BMP280;56298;49.246;9.410;2022-09-30T02:19:44;98609.56;;;6.20
69186;BMP280;56298;49.246;9.410;2022-09-30T02:22:20;98620.78;;;6.19
69186;BMP280;56298;49.246;9.410;2022-09-30T02:24:50;98626.97;;;6.15
69186;BMP280;56298;49.246;9.410;2022-09-30T02:27:22;98623.19;;;6.20
69186;BMP280;56298;49.246;9.410;2022-09-30T02:29:52;98621.03;;;6.26
69186;BMP280;56298;49.246;9.410;2022-09-30T02:32:24;98627.41;;;6.30
69186;BMP280;56298;49.246;9.410;2022-09-30T02:35:00;98638.38;;;6.34
69186;BMP280;56298;49.246;9.410;2022-09-30T02:37:31;98638.16;;;6.39
69186;BMP280;56298;49.246;9.410;2022-09-30T02:40:06;98643.38;;;6.44
69186;BMP280;56298;49.246;9.410;2022-09-30T02:42:34;98642.03;;;6.50
69186;BMP280;56298;49.246;9.410;2022-09-30T02:45:03;98640.66;;;6.56
69186;BMP280;56298;49.246;9.410;2022-09-30T02:47:55;98640.66;;;6.56
69186;BMP280;56298;49.246;9.410;2022-09-30T02:50:30;98641.91;;;6.59
69186;BMP280;56298;49.246;9.410;2022-09-30T02:56:20;98646.44;;;6.67
69186;BMP280;56298;49.246;9.410;2022-09-30T02:58:25;98653.34;;;6.65
69186;BMP280;56298;49.246;9.410;2022-09-30T03:00:51;98667.09;;;6.68
69186;BMP280;56298;49.246;9.410;2022-09-30T03:03:31;98662.06;;;6.70
69186;BMP280;56298;49.246;9.410;2022-09-30T03:05:58;98668.22;;;6.67
69186;BMP280;56298;49.246;9.410;2022-09-30T03:08:23;98664.81;;;6.70
69186;BMP280;56298;49.246;9.410;2022-09-30T03:10:49;98673.09;;;6.74
69186;BMP280;56298;49.246;9.410;2022-09-30T03:18:49;98675.59;;;6.79
69186;BMP280;56298;49.246;9.410;2022-09-30T03:21:40;98677.06;;;6.77
69186;BMP280;56298;49.246;9.410;2022-09-30T03:27:07;98668.34;;;6.71
69186;BMP280;56298;49.246;9.410;2022-09-30T03:29:49;98665.59;;;6.71
69186;BMP280;56298;49.246;9.410;2022-09-30T03:32:39;98668.22;;;6.67
69186;BMP280;56298;49.246;9.410;2022-09-30T03:35:29;98669.69;;;6.65
69186;BMP280;56298;49.246;9.410;2022-09-30T03:43:05;98674.72;;;6.50
69186;BMP280;56298;49.246;9.410;2022-09-30T03:45:50;98680.47;;;6.49
69186;BMP280;56298;49.246;9.410;2022-09-30T03:48:17;98678.53;;;6.49
69186;BMP280;56298;49.246;9.410;2022-09-30T03:50:44;98683.66;;;6.51
69186;BMP280;56298;49.246;9.410;2022-09-30T03:53:10;98686.03;;;6.40
69186;BMP280;56298;49.246;9.410;2022-09-30T03:55:44;98690.69;;;6.39
69186;BMP280;56298;49.246;9.410;2022-09-30T03:58:11;98693.16;;;6.32
69186;BMP280;56298;49.246;9.410;2022-09-30T04:00:40;98698.97;;;6.31
69186;BMP280;56298;49.246;9.410;2022-09-30T04:03:09;98702.44;;;6.19
69186;BMP280;56298;49.246;9.410;2022-09-30T04:05:34;98705.16;;;6.19
69186;BMP280;56298;49.246;9.410;2022-09-30T04:08:00;98703.59;;;6.18
69186;BMP280;56298;49.246;9.410;2022-09-30T04:10:25;98699.41;;;6.08
69186;BMP280;56298;49.246;9.410;2022-09-30T04:12:52;98698.47;;;6.04
69186;BMP280;56298;49.246;9.410;2022-09-30T04:15:18;98702.13;;;6.08
69186;BMP280;56298;49.246;9.410;2022-09-30T04:17:44;98704.38;;;6.06
69186;BMP280;56298;49.246;9.410;2022-09-30T04:20:09;98706.63;;;6.04
69186;BMP280;56298;49.246;9.410;2022-09-30T04:22:37;98711.97;;;6.00
69186;BMP280;56298;49.246;9.410;2022-09-30T04:25:02;98711.81;;;5.84
69186;BMP280;56298;49.246;9.410;2022-09-30T04:27:28;98712.00;;;5.79
69186;BMP280;56298;49.246;9.410;2022-09-30T04:29:54;98715.84;;;5.78
69186;BMP280;56298;49.246;9.410;2022-09-30T04:32:21;98712.16;;;5.82
69186;BMP280;56298;49.246;9.410;2022-09-30T04:34:46;98712.28;;;5.86
69186;BMP280;56298;49.246;9.410;2022-09-30T04:37:12;98702.97;;;5.87
69186;BMP280;56298;49.246;9.410;2022-09-30T04:39:38;98706.22;;;5.80
69186;BMP280;56298;49.246;9.410;2022-09-30T04:42:03;98715.19;;;5.81
69186;BMP280;56298;49.246;9.410;2022-09-30T04:44:28;98717.66;;;5.73
69186;BMP280;56298;49.246;9.410;2022-09-30T04:46:54;98721.16;;;5.74
69186;BMP280;56298;49.246;9.410;2022-09-30T04:49:19;98724.34;;;5.76
69186;BMP280;56298;49.246;9.410;2022-09-30T04:51:44;98723.09;;;5.73
69186;BMP280;56298;49.246;9.410;2022-09-30T04:54:10;98729.22;;;5.70
69186;BMP280;56298;49.246;9.410;2022-09-30T04:56:35;98729.28;;;5.61
69186;BMP280;56298;49.246;9.410;2022-09-30T04:59:00;98742.44;;;5.72
69186;BMP280;56298;49.246;9.410;2022-09-30T05:01:26;98751.91;;;5.74
69186;BMP280;56298;49.246;9.410;2022-09-30T05:03:52;98752.91;;;5.70
69186;BMP280;56298;49.246;9.410;2022-09-30T05:06:18;98750.91;;;5.58
69186;BMP280;56298;49.246;9.410;2022-09-30T05:08:45;98759.34;;;5.44
69186;BMP280;56298;49.246;9.410;2022-09-30T05:11:13;98762.97;;;5.48
69186;BMP280;56298;49.246;9.410;2022-09-30T05:13:39;98766.38;;;5.45
69186;BMP280;56298;49.246;9.410;2022-09-30T05:16:06;98763.69;;;5.57
69186;BMP280;56298;49.246;9.410;2022-09-30T05:18:31;98760.94;;;5.45
69186;BMP280;56298;49.246;9.410;2022-09-30T05:20:58;98762.06;;;5.44
69186;BMP280;56298;49.246;9.410;2022-09-30T05:23:25;98770.41;;;5.39
69186;BMP280;56298;49.246;9.410;2022-09-30T05:25:51;98767.75;;;5.30
69186;BMP280;56298;49.246;9.410;2022-09-30T05:28:17;98770.59;;;5.33
69186;BMP280;56298;49.246;9.410;2022-09-30T05:30:43;98768.81;;;5.38
69186;BMP280;56298;49.246;9.410;2022-09-30T05:33:10;98773.59;;;5.41
69186;BMP280;56298;49.246;9.410;2022-09-30T05:35:35;98776.91;;;5.46
69186;BMP280;56298;49.246;9.410;2022-09-30T05:38:01;98777.63;;;5.56
69186;BMP280;56298;49.246;9.410;2022-09-30T05:40:29;98782.56;;;5.63
69186;BMP280;56298;49.246;9.410;2022-09-30T05:42:58;98790.72;;;5.84
69186;BMP280;56298;49.246;9.410;2022-09-30T05:45:24;98790.03;;;5.87
69186;BMP280;56298;49.246;9.410;2022-09-30T05:47:51;98792.00;;;5.99
69186;BMP280;56298;49.246;9.410;2022-09-30T05:50:16;98793.97;;;6.11
69186;BMP280;56298;49.246;9.410;2022-09-30T05:52:41;98807.63;;;6.23
69186;BMP280;56298;49.246;9.410;2022-09-30T05:55:07;98796.25;;;6.42
69186;BMP280;56298;49.246;9.410;2022-09-30T05:57:32;98798.03;;;6.38
69186;BMP280;56298;49.246;9.410;2022-09-30T05:59:58;98801.56;;;6.51
69186;BMP280;56298;49.246;9.410;2022-09-30T06:02:23;98807.22;;;6.46
69186;BMP280;56298;49.246;9.410;2022-09-30T06:04:49;98807.78;;;6.52
69186;BMP280;56298;49.246;9.410;2022-09-30T06:07:15;98808.50;;;6.86
69186;BMP280;56298;49.246;9.410;2022-09-30T06:09:40;98810.47;;;6.98
69186;BMP280;56298;49.246;9.410;2022-09-30T06:12:05;98812.72;;;7.08
69186;BMP280;56298;49.246;9.410;2022-09-30T06:14:31;98816.72;;;7.11
69186;BMP280;56298;49.246;9.410;2022-09-30T06:16:57;98812.81;;;7.37
69186;BMP280;56298;49.246;9.410;2022-09-30T06:19:24;98810.56;;;7.68
69186;BMP280;56298;49.246;9.410;2022-09-30T06:21:50;98808.84;;;8.20
69186;BMP280;56298;49.246;9.410;2022-09-30T06:24:15;98818.84;;;8.44
69186;BMP280;56298;49.246;9.410;2022-09-30T06:26:41;98816.97;;;8.32
69186;BMP280;56298;49.246;9.410;2022-09-30T06:29:07;98826.31;;;8.15
69186;BMP280;56298;49.246;9.410;2022-09-30T06:31:32;98832.13;;;8.14
69186;BMP280;56298;49.246;9.410;2022-09-30T06:33:57;98834.66;;;8.23
69186;BMP280;56298;49.246;9.410;2022-09-30T06:36:23;98842.97;;;8.42
69186;BMP280;56298;49.246;9.410;2022-09-30T06:38:48;98839.22;;;8.63
69186;BMP280;56298;49.246;9.410;2022-09-30T06:41:17;98844.06;;;8.54
69186;BMP280;56298;49.246;9.410;2022-09-30T06:43:42;98853.31;;;8.04
69186;BMP280;56298;49.246;9.410;2022-09-30T06:46:07;98863.16;;;8.09
69186;BMP280;56298;49.246;9.410;2022-09-30T06:48:33;98860.72;;;8.20
69186;BMP280;56298;49.246;9.410;2022-09-30T06:50:59;98851.41;;;8.21
69186;BMP280;56298;49.246;9.410;2022-09-30T06:53:25;98857.50;;;8.30
69186;BMP280;56298;49.246;9.410;2022-09-30T06:55:57;98857.00;;;8.41
69186;BMP280;56298;49.246;9.410;2022-09-30T06:58:23;98865.84;;;8.50
69186;BMP280;56298;49.246;9.410;2022-09-30T07:00:59;98869.81;;;8.69
69186;BMP280;56298;49.246;9.410;2022-09-30T07:03:27;98865.72;;;8.62
69186;BMP280;56298;49.246;9.410;2022-09-30T07:05:55;98864.53;;;8.60
69186;BMP280;56298;49.246;9.410;2022-09-30T07:08:21;98871.31;;;8.66
69186;BMP280;56298;49.246;9.410;2022-09-30T07:10:47;98876.16;;;8.73
69186;BMP280;56298;49.246;9.410;2022-09-30T07:13:12;98881.72;;;8.93
69186;BMP280;56298;49.246;9.410;2022-09-30T07:15:40;98888.06;;;8.97
69186;BMP280;56298;49.246;9.410;2022-09-30T07:18:06;98893.78;;;9.08
69186;BMP280;56298;49.246;9.410;2022-09-30T07:20:32;98893.06;;;9.27
69186;BMP280;56298;49.246;9.410;2022-09-30T07:22:57;98891.88;;;9.44
69186;BMP280;56298;49.246;9.410;2022-09-30T07:25:22;98885.63;;;9.43
69186;BMP280;56298;49.246;9.410;2022-09-30T07:27:48;98882.47;;;9.61
69186;BMP280;56298;49.246;9.410;2022-09-30T07:30:14;98886.50;;;10.26
69186;BMP280;56298;49.246;9.410;2022-09-30T07:32:39;98892.88;;;10.34
69186;BMP280;56298;49.246;9.410;2022-09-30T07:35:05;98892.56;;;10.82
69186;BMP280;56298;49.246;9.410;2022-09-30T07:37:31;98889.94;;;11.17
69186;BMP280;56298;49.246;9.410;2022-09-30T07:40:01;98890.44;;;11.26
69186;BMP280;56298;49.246;9.410;2022-09-30T07:42:28;98894.50;;;11.32
69186;BMP280;56298;49.246;9.410;2022-09-30T07:44:55;98898.44;;;11.08
69186;BMP280;56298;49.246;9.410;2022-09-30T07:47:20;98905.47;;;11.05
69186;BMP280;56298;49.246;9.410;2022-09-30T07:49:46;98906.31;;;10.86
69186;BMP280;56298;49.246;9.410;2022-09-30T07:52:12;98903.19;;;11.11
69186;BMP280;56298;49.246;9.410;2022-09-30T07:54:38;98902.25;;;11.03
69186;BMP280;56298;49.246;9.410;2022-09-30T07:57:06;98904.59;;;11.24
69186;BMP280;56298;49.246;9.410;2022-09-30T07:59:36;98909.59;;;10.95
69186;BMP280;56298;49.246;9.410;2022-09-30T08:02:02;98920.34;;;10.81
69186;BMP280;56298;49.246;9.410;2022-09-30T08:04:28;98917.66;;;10.84
69186;BMP280;56298;49.246;9.410;2022-09-30T08:06:56;98925.91;;;10.84
69186;BMP280;56298;49.246;9.410;2022-09-30T08:09:23;98922.97;;;10.97
69186;BMP280;56298;49.246;9.410;2022-09-30T08:11:49;98938.16;;;10.91
69186;BMP280;56298;49.246;9.410;2022-09-30T08:14:17;98928.84;;;11.22
69186;BMP280;56298;49.246;9.410;2022-09-30T08:16:43;98937.44;;;11.21
69186;BMP280;56298;49.246;9.410;2022-09-30T08:19:13;98944.19;;;11.54
69186;BMP280;56298;49.246;9.410;2022-09-30T08:21:40;98947.75;;;11.85
69186;BMP280;56298;49.246;9.410;2022-09-30T08:24:05;98949.03;;;12.29
69186;BMP280;56298;49.246;9.410;2022-09-30T08:26:30;98954.59;;;12.74
69186;BMP280;56298;49.246;9.410;2022-09-30T08:28:56;98954.06;;;13.06
69186;BMP280;56298;49.246;9.410;2022-09-30T08:31:22;98958.75;;;13.02
69186;BMP280;56298;49.246;9.410;2022-09-30T08:33:48;98957.06;;;12.87
69186;BMP280;56298;49.246;9.410;2022-09-30T08:36:15;98950.69;;;12.79
69186;BMP280;56298;49.246;9.410;2022-09-30T08:38:41;98953.50;;;12.82
69186;BMP280;56298;49.246;9.410;2022-09-30T08:41:20;98957.66;;;13.14
69186;BMP280;56298;49.246;9.410;2022-09-30T08:52:25;98969.22;;;14.30
69186;BMP280;56298;49.246;9.410;2022-09-30T08:54:53;98969.63;;;14.50
69186;BMP280;56298;49.246;9.410;2022-09-30T08:57:20;98977.91;;;14.61
69186;BMP280;56298;49.246;9.410;2022-09-30T08:59:48;98966.91;;;14.76
69186;BMP280;56298;49.246;9.410;2022-09-30T09:02:45;98965.69;;;14.48
69186;BMP280;56298;49.246;9.410;2022-09-30T09:05:31;98962.56;;;14.75
69186;BMP280;56298;49.246;9.410;2022-09-30T09:08:16;98963.34;;;15.04
69186;BMP280;56298;49.246;9.410;2022-09-30T09:10:48;98962.13;;;15.20
69186;BMP280;56298;49.246;9.410;2022-09-30T09:13:38;98962.94;;;15.17
69186;BMP280;56298;49.246;9.410;2022-09-30T09:18:54;98964.72;;;15.81
69186;BMP280;56298;49.246;9.410;2022-09-30T09:21:30;98960.38;;;15.84
69186;BMP280;56298;49.246;9.410;2022-09-30T09:24:01;98954.91;;;15.66
69186;BMP280;56298;49.246;9.410;2022-09-30T09:26:34;98952.88;;;15.85
69186;BMP280;56298;49.246;9.410;2022-09-30T09:31:52;98946.78;;;16.08
69186;BMP280;56298;49.246;9.410;2022-09-30T09:34:17;98957.13;;;16.00
69186;BMP280;56298;49.246;9.410;2022-09-30T09:37:14;98952.69;;;16.10
69186;BMP280;56298;49.246;9.410;2022-09-30T09:40:06;98948.84;;;15.93
69186;BMP280;56298;49.246;9.410;2022-09-30T09:48:24;98951.06;;;16.23
69186;BMP280;56298;49.246;9.410;2022-09-30T09:51:01;98951.75;;;16.31
69186;BMP280;56298;49.246;9.410;2022-09-30T09:53:43;98950.69;;;16.14
69186;BMP280;56298;49.246;9.410;2022-09-30T09:56:13;98940.19;;;16.51
69186;BMP280;56298;49.246;9.410;2022-09-30T09:59:15;98943.28;;;17.02
69186;BMP280;56298;49.246;9.410;2022-09-30T10:09:36;98933.00;;;16.99
69186;BMP280;56298;49.246;9.410;2022-09-30T10:19:48;98940.06;;;17.73
69186;BMP280;56298;49.246;9.410;2022-09-30T10:24:41;98938.50;;;17.72
69186;BMP280;56298;49.246;9.410;2022-09-30T10:27:29;98945.06;;;17.85
69186;BMP280;56298;49.246;9.410;2022-09-30T10:29:54;98938.06;;;17.77
69186;BMP280;56298;49.246;9.410;2022-09-30T10:32:20;98943.16;;;17.82
69186;BMP280;56298;49.246;9.410;2022-09-30T10:34:54;98937.31;;;18.00
69186;BMP280;56298;49.246;9.410;2022-09-30T10:37:22;98931.94;;;18.13
69186;BMP280;56298;49.246;9.410;2022-09-30T10:39:57;98935.00;;;17.68
69186;BMP280;56298;49.246;9.410;2022-09-30T10:42:26;98932.59;;;18.25
69186;BMP280;56298;49.246;9.410;2022-09-30T10:44:59;98934.53;;;18.52
69186;BMP280;56298;49.246;9.410;2022-09-30T10:47:26;98937.13;;;18.39
69186;BMP280;56298;49.246;9.410;2022-09-30T10:50:05;98941.16;;;18.58
69186;BMP280;56298;49.246;9.410;2022-09-30T10:52:34;98941.16;;;18.82
69186;BMP280;56298;49.246;9.410;2022-09-30T10:55:25;98938.38;;;18.82
69186;BMP280;56298;49.246;9.410;2022-09-30T11:00:49;98939.63;;;18.81
69186;BMP280;56298;49.246;9.410;2022-09-30T11:03:21;98945.88;;;18.85
69186;BMP280;56298;49.246;9.410;2022-09-30T11:05:49;98946.13;;;18.94
69186;BMP280;56298;49.246;9.410;2022-09-30T11:11:09;98939.59;;;19.01
69186;BMP280;56298;49.246;9.410;2022-09-30T11:13:41;98936.94;;;19.38
69186;BMP280;56298;49.246;9.410;2022-09-30T11:16:20;98943.41;;;19.51
69186;BMP280;56298;49.246;9.410;2022-09-30T11:21:48;98945.50;;;19.64
69186;BMP280;56298;49.246;9.410;2022-09-30T11:24:40;98938.66;;;19.68
69186;BMP280;56298;49.246;9.410;2022-09-30T11:30:13;98946.09;;;19.71
69186;BMP280;56298;49.246;9.410;2022-09-30T11:33:09;98942.50;;;19.54
69186;BMP280;56298;49.246;9.410;2022-09-30T11:35:50;98939.31;;;19.56
69186;BMP280;56298;49.246;9.410;2022-09-30T11:38:29;98940.31;;;19.66
69186;BMP280;56298;49.246;9.410;2022-09-30T11:41:03;98943.09;;;19.82
69186;BMP280;56298;49.246;9.410;2022-09-30T11:51:34;98942.53;;;20.24
69186;BMP280;56298;49.246;9.410;2022-09-30T11:59:15;98951.84;;;20.17
69186;BMP280;56298;49.246;9.410;2022-09-30T12:01:45;98941.13;;;20.32
69186;BMP280;56298;49.246;9.410;2022-09-30T12:04:28;98933.47;;;20.20
69186;BMP280;56298;49.246;9.410;2022-09-30T12:07:00;98929.31;;;20.28
69186;BMP280;56298;49.246;9.410;2022-09-30T12:09:35;98927.13;;;20.19
69186;BMP280;56298;49.246;9.410;2022-09-30T12:12:07;98931.19;;;20.31
69186;BMP280;56298;49.246;9.410;2022-09-30T12:14:46;98948.34;;;20.13
69186;BMP280;56298;49.246;9.410;2022-09-30T12:17:27;98943.06;;;20.19
69186;BMP280;56298;49.246;9.410;2022-09-30T12:20:01;98941.22;;;20.45
69186;BMP280;56298;49.246;9.410;2022-09-30T12:22:31;98939.22;;;20.29
69186;BMP280;56298;49.246;9.410;2022-09-30T12:25:01;98941.63;;;20.44
69186;BMP280;56298;49.246;9.410;2022-09-30T12:27:34;98944.53;;;20.40
69186;BMP280;56298;49.246;9.410;2022-09-30T12:30:13;98951.22;;;20.26
69186;BMP280;56298;49.246;9.410;2022-09-30T12:33:17;98949.91;;;19.61
69186;BMP280;56298;49.246;9.410;2022-09-30T12:38:45;98948.72;;;19.01
69186;BMP280;56298;49.246;9.410;2022-09-30T12:44:11;98952.81;;;18.97
69186;BMP280;56298;49.246;9.410;2022-09-30T12:49:10;98942.16;;;18.92
69186;BMP280;56298;49.246;9.410;2022-09-30T12:51:43;98946.88;;;19.15
69186;BMP280;56298;49.246;9.410;2022-09-30T12:54:18;98946.88;;;19.15
69186;BMP280;56298;49.246;9.410;2022-09-30T12:56:45;98940.91;;;19.16
69186;BMP280;56298;49.246;9.410;2022-09-30T12:59:13;98949.09;;;19.24
69186;BMP280;56298;49.246;9.410;2022-09-30T13:01:40;98952.97;;;19.30
69186;BMP280;56298;49.246;9.410;2022-09-30T13:11:45;98950.47;;;19.72
69186;BMP280;56298;49.246;9.410;2022-09-30T13:19:49;98955.38;;;20.18
69186;BMP280;56298;49.246;9.410;2022-09-30T13:27:46;98954.00;;;20.43
69186;BMP280;56298;49.246;9.410;2022-09-30T13:32:37;98964.19;;;20.16
69186;BMP280;56298;49.246;9.410;2022-09-30T13:35:28;98973.31;;;20.17
69186;BMP280;56298;49.246;9.410;2022-09-30T13:45:53;98973.13;;;20.08
69186;BMP280;56298;49.246;9.410;2022-09-30T13:48:27;98964.19;;;20.16
69186;BMP280;56298;49.246;9.410;2022-09-30T13:50:54;98972.88;;;20.02
69186;BMP280;56298;49.246;9.410;2022-09-30T13:53:27;98971.72;;;19.99
69186;BMP280;56298;49.246;9.410;2022-09-30T13:55:54;98973.81;;;19.79
69186;BMP280;56298;49.246;9.410;2022-09-30T14:06:20;98974.78;;;19.88
69186;BMP280;56298;49.246;9.410;2022-09-30T14:11:38;98975.31;;;20.00
69186;BMP280;56298;49.246;9.410;2022-09-30T14:20:02;98980.25;;;19.92
69186;BMP280;56298;49.246;9.410;2022-09-30T14:22:35;98972.03;;;19.68
69186;BMP280;56298;49.246;9.410;2022-09-30T14:25:01;98976.59;;;19.38
69186;BMP280;56298;49.246;9.410;2022-09-30T14:30:14;98972.13;;;19.04
69186;BMP280;56298;49.246;9.410;2022-09-30T14:32:46;98973.44;;;18.72
69186;BMP280;56298;49.246;9.410;2022-09-30T14:35:16;98971.91;;;18.47
69186;BMP280;56298;49.246;9.410;2022-09-30T14:37:50;98976.84;;;18.36
69186;BMP280;56298;49.246;9.410;2022-09-30T14:40:19;98974.16;;;18.28
69186;BMP280;56298;49.246;9.410;2022-09-30T14:42:47;98975.81;;;18.26
69186;BMP280;56298;49.246;9.410;2022-09-30T14:45:18;98966.59;;;18.33
69186;BMP280;56298;49.246;9.410;2022-09-30T14:47:47;98971.47;;;18.25
69186;BMP280;56298;49.246;9.410;2022-09-30T14:50:17;98973.72;;;18.06
69186;BMP280;56298;49.246;9.410;2022-09-30T14:52:46;98968.31;;;17.95
69186;BMP280;56298;49.246;9.410;2022-09-30T14:55:18;98974.00;;;17.84
69186;BMP280;56298;49.246;9.410;2022-09-30T14:57:47;98968.25;;;17.71
69186;BMP280;56298;49.246;9.410;2022-09-30T15:00:23;98965.97;;;17.63
69186;BMP280;56298;49.246;9.410;2022-09-30T15:02:50;98964.53;;;17.47
69186;BMP280;56298;49.246;9.410;2022-09-30T15:05:16;98964.31;;;17.34
69186;BMP280;56298;49.246;9.410;2022-09-30T15:07:42;98964.72;;;17.33
69186;BMP280;56298;49.246;9.410;2022-09-30T15:10:22;98962.06;;;17.22
69186;BMP280;56298;49.246;9.410;2022-09-30T15:12:49;98979.09;;;17.24
69186;BMP280;56298;49.246;9.410;2022-09-30T15:15:34;98978.56;;;17.33
69186;BMP280;56298;49.246;9.410;2022-09-30T15:18:20;98972.91;;;17.44
69186;BMP280;56298;49.246;9.410;2022-09-30T15:20:45;98972.00;;;17.54
69186;BMP280;56298;49.246;9.410;2022-09-30T15:23:15;98974.03;;;17.50
69186;BMP280;56298;49.246;9.410;2022-09-30T15:25:42;98972.13;;;17.47
69186;BMP280;56298;49.246;9.410;2022-09-30T15:28:11;98965.13;;;17.35
69186;BMP280;56298;49.246;9.410;2022-09-30T15:30:36;98973.09;;;17.29
69186;BMP280;56298;49.246;9.410;2022-09-30T15:33:04;98977.09;;;17.24
69186;BMP280;56298;49.246;9.410;2022-09-30T15:35:30;98969.28;;;17.16
69186;BMP280;56298;49.246;9.410;2022-09-30T15:38:08;98971.81;;;16.99
69186;BMP280;56298;49.246;9.410;2022-09-30T15:40:34;98971.47;;;16.90
69186;BMP280;56298;49.246;9.410;2022-09-30T15:43:14;98972.81;;;16.74
69186;BMP280;56298;49.246;9.410;2022-09-30T15:45:47;98967.69;;;16.69
69186;BMP280;56298;49.246;9.410;2022-09-30T15:50:47;98975.72;;;16.52
69186;BMP280;56298;49.246;9.410;2022-09-30T15:55:43;98974.63;;;16.46
69186;BMP280;56298;49.246;9.410;2022-09-30T16:01:25;98980.22;;;16.39
69186;BMP280;56298;49.246;9.410;2022-09-30T16:04:10;98988.19;;;16.30
69186;BMP280;56298;49.246;9.410;2022-09-30T16:06:47;98987.06;;;16.16
69186;BMP280;56298;49.246;9.410;2022-09-30T16:11:42;98982.69;;;16.19
69186;BMP280;56298;49.246;9.410;2022-09-30T16:14:18;98980.78;;;16.12
69186;BMP280;56298;49.246;9.410;2022-09-30T16:16:49;98985.94;;;16.06
69186;BMP280;56298;49.246;9.410;2022-09-30T16:19:17;98992.31;;;15.96
69186;BMP280;56298;49.246;9.410;2022-09-30T16:21:45;98995.09;;;15.85
69186;BMP280;56298;49.246;9.410;2022-09-30T16:26:53;98995.53;;;15.76
69186;BMP280;56298;49.246;9.410;2022-09-30T16:29:20;98994.81;;;15.61
69186;BMP280;56298;49.246;9.410;2022-09-30T16:31:48;98996.38;;;15.59
69186;BMP280;56298;49.246;9.410;2022-09-30T16:34:26;99002.75;;;15.48
69186;BMP280;56298;49.246;9.410;2022-09-30T16:36:53;98993.66;;;15.41
69186;BMP280;56298;49.246;9.410;2022-09-30T16:39:20;98994.88;;;15.29
69186;BMP280;56298;49.246;9.410;2022-09-30T16:41:46;99000.41;;;15.18
69186;BMP280;56298;49.246;9.410;2022-09-30T16:44:11;98989.78;;;15.09
69186;BMP280;56298;49.246;9.410;2022-09-30T16:46:37;98993.31;;;14.88
69186;BMP280;56298;49.246;9.410;2022-09-30T16:49:15;98985.84;;;14.70
69186;BMP280;56298;49.246;9.410;2022-09-30T16:51:41;98990.16;;;14.64
69186;BMP280;56298;49.246;9.410;2022-09-30T16:54:07;98988.16;;;14.50
69186;BMP280;56298;49.246;9.410;2022-09-30T16:56:32;98987.34;;;14.31
69186;BMP280;56298;49.246;9.410;2022-09-30T16:58:58;98988.88;;;14.21
69186;BMP280;56298;49.246;9.410;2022-09-30T17:01:24;99004.22;;;14.12
69186;BMP280;56298;49.246;9.410;2022-09-30T17:03:51;98991.56;;;13.96
69186;BMP280;56298;49.246;9.410;2022-09-30T17:06:18;98992.28;;;13.86
69186;BMP280;56298;49.246;9.410;2022-09-30T17:08:44;98995.03;;;13.78
69186;BMP280;56298;49.246;9.410;2022-09-30T17:11:10;98998.50;;;13.64
69186;BMP280;56298;49.246;9.410;2022-09-30T17:13:36;98996.13;;;13.63
69186;BMP280;56298;49.246;9.410;2022-09-30T17:16:01;99005.94;;;13.57
69186;BMP280;56298;49.246;9.410;2022-09-30T17:18:27;98998.72;;;13.37
69186;BMP280;56298;49.246;9.410;2022-09-30T17:20:52;99000.25;;;13.31
69186;BMP280;56298;49.246;9.410;2022-09-30T17:23:22;99004.81;;;13.13